Página principal
METAR-TAF:

METAR-TAF

Aeroportos :

Aeroporto Internacional Simón Bolívar

Caracas, Venezuela

latitude: 10-36N, longitude: 066-59W, altura: 43 m

Observação actual do tempo

O boletim foi feito há 16 minutos, às 11:00 UTC
Vento calmo
Temperatura 26°C
Humidade 74%
Pressão 1013 hPa
Visibilidade 10 km ou mais
Nuvens dispersasa uma altura de 1600 ft

METAR: SVMI 181100Z 00000KT 9999 SCT016 26/21 Q1013

Hora: 07:16 (11:16 UTC)

Previsão

O boletim foi feito há 7 horas e 6 minutos, às 04:10 UTC
Previsão válida de 18 às 06 UTC a 19 às 06 UTC
Vento 2 kt de es-nordeste
Visibilidade 10 km ou mais
Nuvens dispersasa uma altura de 1600 ft
Tornando-se
de 18 às 07 UTC a 18 às 11 UTC
Vento kt de norte
Visibilidade: 9000 m
Poucas nuvensa uma altura de 1600 ft
Nuvens fragmentadasa uma altura de 7000 ft
chuvisco

TAF: SVMI 180410Z 1806/1906 07002KT 9999 SCT016 TX32/16Z TN24/06Z BECMG 1807/1811 00000KT 9000 DZ FEW016 BKN070

Observações e previsões do tempo de mais de 4000 aeroportos (mensagens METAR e TAF).

As estações disponíveis são os pontos amarelos e vermelhos sobre o mapa.

Mova o rato sobre o mapa para ver o nome da estação.

Depois clique no ponto para visualizar as observações e previsões meteorológicas.

Para alterar o mapa : clique nos botões verdes com uma cruz preta para aumentar o zoom; no botão verde com uma pitada de zoom; ou nas setas verdes para mapas adjacentes.


METAR-TAF: